Time;durP1;ratioP1;P1;durP2;ratioP2;P2;SDS_P1;SDS_P2;PMS_P1;PMS_P2;Temp;Humidity;BMP_temperature;BMP_pressure;BME280_temperature;BME280_humidity;BME280_pressure;Samples;Min_cycle;Max_cycle;Signal;HPM_P1;HPM_P2
2023/08/12 00:02:20;;;;;;;2.77;1.77;;;24.50;99.90;;;;;;1917238;75;21104;-88
2023/08/12 00:05:12;;;;;;;3.12;1.72;;;24.40;99.90;;;;;;1927272;73;21164;-89
2023/08/12 00:08:04;;;;;;;4.05;1.80;;;24.40;99.90;;;;;;1917170;75;21204;-90
2023/08/12 00:10:55;;;;;;;2.47;1.67;;;24.30;99.90;;;;;;1937116;73;21204;-90
2023/08/12 00:13:46;;;;;;;1.67;1.42;;;24.30;99.90;;;;;;1916739;75;21131;-90
2023/08/12 00:16:37;;;;;;;3.45;1.57;;;24.30;99.90;;;;;;1917060;75;21142;-90
2023/08/12 00:19:29;;;;;;;3.77;1.70;;;24.30;99.90;;;;;;1938444;73;21134;-89
2023/08/12 00:22:20;;;;;;;2.65;2.00;;;24.40;99.90;;;;;;1940715;73;21086;-90
2023/08/12 00:25:11;;;;;;;6.20;2.00;;;24.40;99.90;;;;;;1950473;73;21215;-90
2023/08/12 00:28:03;;;;;;;2.80;1.60;;;24.30;99.90;;;;;;1917234;75;21082;-89
2023/08/12 00:30:54;;;;;;;2.10;1.90;;;24.20;99.90;;;;;;1917019;75;21197;-89
2023/08/12 00:36:25;;;;;;;3.08;2.00;;;24.20;99.90;;;;;;1946209;72;22161;-89
2023/08/12 00:41:58;;;;;;;3.12;1.70;;;24.20;99.90;;;;;;1942885;72;22162;-90
2023/08/12 00:47:32;;;;;;;7.03;3.70;;;24.00;99.90;;;;;;1949896;72;22182;-89
2023/08/12 00:50:24;;;;;;;19.77;8.43;;;23.90;99.90;;;;;;1911793;75;21099;-90
2023/08/12 00:53:17;;;;;;;16.80;7.10;;;23.90;99.90;;;;;;1886338;75;21415;-90
2023/08/12 01:01:36;;;;;;;4.45;2.25;;;23.90;99.90;;;;;;1928713;72;22266;-88
2023/08/12 01:04:28;;;;;;;17.70;9.05;;;23.80;99.90;;;;;;1886689;75;21155;-90
2023/08/12 01:07:20;;;;;;;11.22;6.15;;;23.80;99.90;;;;;;1916939;75;21075;-89
2023/08/12 01:10:14;;;;;;;5.70;2.47;;;23.70;99.90;;;;;;1906805;75;21594;-89
2023/08/12 01:13:10;;;;;;;3.05;1.80;;;23.70;99.90;;;;;;1893481;75;21133;-89
2023/08/12 01:21:29;;;;;;;4.55;2.58;;;23.60;99.90;;;;;;1935345;72;22295;-89
2023/08/12 01:27:01;;;;;;;8.78;3.35;;;23.70;99.90;;;;;;1933518;72;22661;-90
2023/08/12 01:32:37;;;;;;;4.20;2.00;;;23.50;99.90;;;;;;1946026;72;22210;-90
2023/08/12 01:35:33;;;;;;;4.53;1.98;;;23.40;99.90;;;;;;1920454;73;21149;-90
2023/08/12 01:41:10;;;;;;;3.15;2.00;;;23.40;99.90;;;;;;1962768;72;22193;-90
2023/08/12 01:46:44;;;;;;;3.90;1.95;;;23.50;99.90;;;;;;1957083;72;22283;-89
2023/08/12 01:52:16;;;;;;;3.60;1.70;;;23.40;99.90;;;;;;1935926;72;22157;-89
2023/08/12 01:55:09;;;;;;;2.25;1.60;;;23.30;99.90;;;;;;1893921;75;21818;-90
2023/08/12 02:03:19;;;;;;;2.70;1.82;;;23.30;99.90;;;;;;1923913;72;22304;-89
2023/08/12 02:06:10;;;;;;;2.02;1.60;;;23.30;99.90;;;;;;1906345;75;21090;-89
2023/08/12 02:11:45;;;;;;;1.80;1.45;;;23.30;99.90;;;;;;1944958;72;22280;-89
2023/08/12 02:14:36;;;;;;;2.27;1.80;;;23.30;99.90;;;;;;1945331;73;21134;-89
2023/08/12 02:17:28;;;;;;;2.37;1.62;;;23.40;99.90;;;;;;1916740;75;21113;-90
2023/08/12 02:20:20;;;;;;;2.33;1.50;;;23.40;99.90;;;;;;1928888;73;21062;-90
2023/08/12 02:23:11;;;;;;;3.00;1.52;;;23.30;99.90;;;;;;1917122;75;21443;-90
2023/08/12 02:26:03;;;;;;;3.55;2.40;;;23.30;99.90;;;;;;1917795;75;21191;-90
2023/08/12 02:28:54;;;;;;;6.58;2.87;;;23.20;99.90;;;;;;1917464;73;21090;-90
2023/08/12 02:31:46;;;;;;;5.22;2.77;;;23.10;99.90;;;;;;1942250;73;21074;-90
2023/08/12 02:34:37;;;;;;;3.92;2.08;;;23.10;99.90;;;;;;1922502;73;21098;-90
2023/08/12 02:37:28;;;;;;;2.35;1.95;;;23.00;99.90;;;;;;1916944;75;21134;-90
2023/08/12 02:40:19;;;;;;;3.10;2.15;;;23.00;99.90;;;;;;1929167;73;21180;-90
2023/08/12 03:10:25;;;;;;;3.22;1.62;;;23.00;99.90;;;;;;1974267;71;22219;-90
2023/08/12 03:27:39;;;;;;;1.70;1.20;;;22.90;99.90;;;;;;1951877;72;22594;-90
2023/08/12 03:33:21;;;;;;;4.28;2.02;;;22.90;99.90;;;;;;1951042;72;22181;-91
2023/08/12 03:38:52;;;;;;;4.03;1.77;;;22.80;99.90;;;;;;1926591;72;22186;-91
2023/08/12 03:41:45;;;;;;;1.85;1.50;;;22.70;99.90;;;;;;1893164;75;21502;-91
2023/08/12 03:44:37;;;;;;;3.47;1.75;;;22.60;99.90;;;;;;1880025;76;21142;-90
2023/08/12 03:47:28;;;;;;;2.30;1.65;;;22.50;99.90;;;;;;1910538;75;21087;-90
2023/08/12 03:50:20;;;;;;;3.45;1.70;;;22.40;99.90;;;;;;1900294;75;21046;-90
2023/08/12 03:53:12;;;;;;;4.15;1.65;;;22.40;99.90;;;;;;1907220;75;21125;-90
2023/08/12 04:01:29;;;;;;;1.90;1.62;;;22.50;99.90;;;;;;1929793;72;22310;-89
2023/08/12 04:04:20;;;;;;;3.45;1.60;;;22.50;99.90;;;;;;1884246;76;21574;-90
2023/08/12 04:07:11;;;;;;;2.25;1.60;;;22.60;99.90;;;;;;1902253;75;21110;-90
2023/08/12 04:10:03;;;;;;;4.03;2.40;;;22.70;99.90;;;;;;1904729;75;21108;-89
2023/08/12 04:12:54;;;;;;;3.85;2.20;;;22.70;99.90;;;;;;1884472;75;21099;-92
2023/08/12 04:21:07;;;;;;;2.45;1.80;;;22.70;99.90;;;;;;1935581;72;22240;-90
2023/08/12 04:26:40;;;;;;;2.25;1.52;;;22.60;99.90;;;;;;1935756;72;22263;-90
2023/08/12 04:29:31;;;;;;;2.72;2.05;;;22.60;99.90;;;;;;1879148;75;21090;-90
2023/08/12 04:32:22;;;;;;;3.05;1.92;;;22.50;99.90;;;;;;1894609;75;21114;-91
2023/08/12 04:35:14;;;;;;;4.00;1.90;;;22.50;99.90;;;;;;1891172;75;21160;-90
2023/08/12 04:38:06;;;;;;;2.20;1.95;;;22.40;99.90;;;;;;1884418;75;21126;-91
2023/08/12 04:40:58;;;;;;;3.92;2.20;;;22.40;99.90;;;;;;1884456;76;21146;-91
2023/08/12 04:46:29;;;;;;;3.45;1.70;;;22.50;99.90;;;;;;1959524;72;22162;-91
2023/08/12 04:49:23;;;;;;;4.08;2.35;;;22.50;99.90;;;;;;1910716;75;21214;-90
2023/08/12 04:52:14;;;;;;;3.85;2.10;;;22.40;99.90;;;;;;1884217;76;21188;-91
2023/08/12 04:57:49;;;;;;;3.27;1.98;;;22.40;99.90;;;;;;1935169;72;22176;-90
2023/08/12 05:00:43;;;;;;;4.67;2.47;;;22.40;99.90;;;;;;1905044;75;21621;-91
2023/08/12 05:03:35;;;;;;;4.22;1.92;;;22.40;99.90;;;;;;1888164;75;21211;-91
2023/08/12 05:06:26;;;;;;;3.87;1.87;;;22.40;99.90;;;;;;1915103;75;21046;-90
2023/08/12 05:09:17;;;;;;;3.60;1.87;;;22.40;99.90;;;;;;1899292;75;21118;-91
2023/08/12 05:12:10;;;;;;;4.72;1.92;;;22.30;99.90;;;;;;1906552;75;21118;-90
2023/08/12 05:15:02;;;;;;;4.55;1.92;;;22.30;99.90;;;;;;1886465;75;21236;-90
2023/08/12 05:17:53;;;;;;;2.87;1.95;;;22.30;99.90;;;;;;1897231;75;21156;-90
2023/08/12 05:23:24;;;;;;;2.42;1.90;;;22.40;99.90;;;;;;1927478;72;22224;-88
2023/08/12 05:26:15;;;;;;;4.37;2.15;;;22.50;99.90;;;;;;1899839;73;21242;-87
2023/08/12 05:29:07;;;;;;;4.55;2.00;;;22.60;99.90;;;;;;1910995;75;21107;-88
2023/08/12 05:32:06;;;;;;;3.62;2.00;;;22.70;99.90;;;;;;1903683;75;21097;-88
2023/08/12 05:34:57;;;;;;;6.03;2.10;;;22.80;99.90;;;;;;1897118;75;21151;-89
2023/08/12 05:37:49;;;;;;;4.30;2.60;;;22.80;99.90;;;;;;1913594;75;21163;-88
2023/08/12 05:40:42;;;;;;;4.37;2.30;;;22.90;99.90;;;;;;1890223;75;21055;-88
2023/08/12 05:46:15;;;;;;;3.52;2.05;;;23.10;99.90;;;;;;1955885;72;22711;-88
2023/08/12 05:52:17;;;;;;;3.83;2.22;;;23.20;99.90;;;;;;1990507;71;22138;-88
2023/08/12 05:55:09;;;;;;;4.37;2.10;;;23.40;99.90;;;;;;1952803;73;21113;-88
2023/08/12 05:58:00;;;;;;;2.65;2.10;;;23.50;99.90;;;;;;2047532;69;21110;-89
2023/08/12 06:00:52;;;;;;;3.00;2.30;;;23.50;99.90;;;;;;2040342;69;21123;-88
2023/08/12 06:03:43;;;;;;;3.85;2.60;;;23.60;99.90;;;;;;2031230;70;21069;-88
2023/08/12 06:06:35;;;;;;;3.02;2.27;;;23.70;99.90;;;;;;2042864;69;21122;-88
2023/08/12 06:09:26;;;;;;;3.22;2.10;;;23.80;99.90;;;;;;2034389;69;21356;-88
2023/08/12 06:12:18;;;;;;;2.70;2.30;;;23.80;99.90;;;;;;2052549;69;21167;-88
2023/08/12 06:15:11;;;;;;;3.70;2.12;;;23.80;99.90;;;;;;2046162;69;21074;-88
2023/08/12 06:20:48;;;;;;;3.08;2.20;;;23.90;99.90;;;;;;1907002;72;28087;-88
2023/08/12 06:26:18;;;;;;;3.98;2.10;;;24.20;99.90;;;;;;1943082;72;22285;-89
2023/08/12 06:29:10;;;;;;;4.10;2.52;;;24.30;99.90;;;;;;1905357;75;21177;-89
2023/08/12 06:32:01;;;;;;;3.05;2.00;;;24.20;99.90;;;;;;1885275;75;21114;-90
2023/08/12 06:34:52;;;;;;;3.45;2.20;;;24.10;99.90;;;;;;1895057;75;21258;-88
2023/08/12 06:37:44;;;;;;;5.50;2.47;;;24.20;99.90;;;;;;1894414;75;21926;-89
2023/08/12 06:40:35;;;;;;;2.98;2.22;;;24.10;99.90;;;;;;1907536;75;21079;-88
2023/08/12 06:43:27;;;;;;;2.95;2.10;;;24.10;99.90;;;;;;1889898;75;21251;-92
2023/08/12 06:46:19;;;;;;;4.30;2.12;;;24.10;99.90;;;;;;1883454;75;21113;-93
2023/08/12 06:49:11;;;;;;;4.33;2.08;;;24.20;99.90;;;;;;1879781;75;21153;-93
2023/08/12 06:52:02;;;;;;;4.58;2.22;;;24.10;99.90;;;;;;1889288;75;21597;-93
2023/08/12 06:54:54;;;;;;;4.85;2.12;;;24.00;99.90;;;;;;1902322;75;21154;-93
2023/08/12 06:57:45;;;;;;;2.45;2.05;;;23.90;99.90;;;;;;1897930;75;21169;-93
2023/08/12 07:00:36;;;;;;;3.62;2.35;;;23.70;99.90;;;;;;1880721;75;21129;-93
2023/08/12 07:36:43;;;;;;;4.15;2.02;;;24.30;99.90;;;;;;1942739;72;22194;-94
2023/08/12 07:39:35;;;;;;;3.40;2.20;;;24.60;99.90;;;;;;1917036;75;21109;-94
2023/08/12 07:42:29;;;;;;;3.92;2.15;;;24.60;99.90;;;;;;1916793;75;21146;-93
2023/08/12 07:45:20;;;;;;;3.10;2.22;;;24.60;99.90;;;;;;1915506;75;21220;-93
2023/08/12 07:48:11;;;;;;;3.40;2.22;;;24.70;99.90;;;;;;1915235;75;21164;-94
2023/08/12 07:51:03;;;;;;;2.65;2.00;;;24.90;99.90;;;;;;1916550;73;21172;-90
2023/08/12 07:53:54;;;;;;;3.40;2.50;;;24.90;99.90;;;;;;1865022;76;21142;-89
2023/08/12 07:56:46;;;;;;;4.92;2.92;;;24.90;99.90;;;;;;1926728;73;21170;-87
2023/08/12 08:02:23;;;;;;;3.62;2.47;;;24.90;99.90;;;;;;1943914;72;22201;-90
2023/08/12 08:05:15;;;;;;;5.58;2.50;;;25.00;99.90;;;;;;1933457;73;21129;-90
2023/08/12 08:08:08;;;;;;;3.52;2.25;;;25.20;99.90;;;;;;1915080;75;21550;-90
2023/08/12 08:10:59;;;;;;;4.10;2.58;;;25.30;99.90;;;;;;1938313;73;21114;-91
2023/08/12 08:13:51;;;;;;;4.53;2.35;;;25.20;99.90;;;;;;1916012;75;21177;-90
2023/08/12 08:32:58;;;;;;;3.02;2.47;;;25.30;99.90;;;;;;1921426;72;22307;-91
2023/08/12 09:08:10;;;;;;;3.65;2.35;;;26.00;99.90;;;;;;1959237;72;22169;-90
2023/08/12 09:11:03;;;;;;;3.62;2.30;;;26.10;99.90;;;;;;1934712;73;21181;-91
2023/08/12 09:18:13;;;;;;;3.58;2.37;;;26.30;99.90;;;;;;1991074;71;22149;-92
2023/08/12 09:21:05;;;;;;;6.83;2.33;;;26.50;99.90;;;;;;2035048;70;21091;-91
2023/08/12 09:23:57;;;;;;;2.72;1.90;;;26.60;99.90;;;;;;1922058;73;21090;-89
2023/08/12 09:46:36;;;;;;;4.53;2.55;;;27.10;99.90;;;;;;1948425;72;22616;-88
2023/08/12 09:49:28;;;;;;;5.75;2.15;;;27.30;99.90;;;;;;1937581;73;21095;-89
2023/08/12 09:52:19;;;;;;;3.65;2.08;;;27.40;99.90;;;;;;1917041;75;21183;-89
2023/08/12 09:57:57;;;;;;;4.53;1.95;;;27.70;99.90;;;;;;1951395;72;22222;-92
2023/08/12 10:03:30;;;;;;;2.62;1.60;;;27.90;99.90;;;;;;1944806;72;22669;-91
2023/08/12 10:11:50;;;;;;;4.20;2.17;;;28.30;99.90;;;;;;1958475;72;22281;-90
2023/08/12 10:17:30;;;;;;;4.70;2.27;;;28.50;99.90;;;;;;1945445;72;22164;-90
2023/08/12 10:20:25;;;;;;;4.20;2.33;;;28.60;99.90;;;;;;1921055;75;21150;-91
2023/08/12 10:23:19;;;;;;;2.72;2.20;;;28.70;99.90;;;;;;1882555;76;21175;-92
2023/08/12 10:26:11;;;;;;;2.75;2.15;;;28.90;99.90;;;;;;1916975;75;21164;-88
2023/08/12 10:29:04;;;;;;;4.25;2.17;;;28.80;99.90;;;;;;1933139;73;21495;-90
2023/08/12 10:31:55;;;;;;;3.17;2.25;;;28.90;99.90;;;;;;1932131;73;21111;-89
2023/08/12 10:37:31;;;;;;;2.45;2.02;;;29.10;99.90;;;;;;1936108;72;22206;-90
2023/08/12 10:40:23;;;;;;;2.10;1.90;;;29.20;99.90;;;;;;1907170;75;21456;-90
2023/08/12 10:43:15;;;;;;;3.12;2.02;;;29.30;99.90;;;;;;1902508;75;21654;-90
2023/08/12 10:51:51;;;;;;;2.52;1.90;;;29.80;99.90;;;;;;1938062;72;22137;-91
2023/08/12 10:57:39;;;;;;;2.95;1.90;;;30.10;99.90;;;;;;1942635;72;22246;-90
2023/08/12 11:00:31;;;;;;;3.30;1.92;;;30.20;99.90;;;;;;1945697;73;21131;-91
2023/08/12 11:03:23;;;;;;;2.58;1.65;;;30.30;99.90;;;;;;1930099;73;21101;-89
2023/08/12 11:06:15;;;;;;;2.50;1.82;;;30.50;99.90;;;;;;1936042;73;21151;-92
2023/08/12 11:09:10;;;;;;;2.12;1.72;;;30.60;99.90;;;;;;1919763;73;21337;-93
2023/08/12 11:12:02;;;;;;;2.60;2.00;;;30.80;99.90;;;;;;1917745;75;21534;-90
2023/08/12 11:17:39;;;;;;;2.67;1.80;;;31.00;99.90;;;;;;1959900;72;22560;-91
2023/08/12 11:20:31;;;;;;;3.58;1.80;;;31.20;99.90;;;;;;1939709;73;21157;-90
2023/08/12 11:23:23;;;;;;;3.65;1.62;;;31.20;99.90;;;;;;1938976;73;21164;-89
2023/08/12 11:31:36;;;;;;;5.40;2.25;;;31.60;99.90;;;;;;1953122;72;22239;-91
2023/08/12 11:34:28;;;;;;;1.80;1.70;;;31.70;99.90;;;;;;1895905;74;21652;-89
2023/08/12 11:37:19;;;;;;;3.50;1.72;;;31.80;99.90;;;;;;1896958;75;21077;-90
2023/08/12 11:40:15;;;;;;;3.60;1.80;;;31.80;99.90;;;;;;1892973;75;21215;-91
2023/08/12 11:43:07;;;;;;;4.72;1.90;;;31.90;99.90;;;;;;1897851;75;21048;-91
2023/08/12 11:45:59;;;;;;;4.87;1.87;;;32.10;99.90;;;;;;1901863;75;21128;-92
2023/08/12 11:48:51;;;;;;;3.92;2.05;;;32.30;99.60;;;;;;1889698;75;21176;-89
2023/08/12 11:51:44;;;;;;;6.12;1.90;;;32.50;99.30;;;;;;1882681;76;21098;-91
2023/08/12 11:57:15;;;;;;;5.67;2.22;;;32.80;98.20;;;;;;1933692;72;22653;-93
2023/08/12 12:00:15;;;;;;;2.92;1.85;;;32.80;97.00;;;;;;1880194;75;21110;-91
2023/08/12 12:03:09;;;;;;;3.17;1.95;;;32.80;96.80;;;;;;1891476;75;21121;-90
2023/08/12 12:06:00;;;;;;;4.30;2.20;;;32.90;96.50;;;;;;1887673;75;21100;-91
2023/08/12 12:08:55;;;;;;;3.27;2.05;;;33.00;95.80;;;;;;1906704;75;21204;-91
2023/08/12 12:11:46;;;;;;;2.50;1.85;;;33.00;96.60;;;;;;1906403;75;21188;-92
2023/08/12 12:14:38;;;;;;;3.10;2.05;;;33.00;97.40;;;;;;1904966;75;21087;-92
2023/08/12 12:17:30;;;;;;;4.15;2.17;;;32.80;97.90;;;;;;1872812;76;21114;-93
2023/08/12 12:36:16;;;;;;;2.72;2.08;;;32.30;97.20;;;;;;1940897;72;22166;-93
2023/08/12 12:39:08;;;;;;;4.12;1.92;;;32.30;97.00;;;;;;1920321;73;21094;-89
2023/08/12 12:41:59;;;;;;;5.25;2.00;;;32.30;97.50;;;;;;1939610;73;21082;-90
2023/08/12 12:44:51;;;;;;;2.90;2.27;;;32.40;96.60;;;;;;1917638;73;21150;-90
2023/08/12 12:47:42;;;;;;;3.08;1.95;;;32.60;96.80;;;;;;1917516;75;21048;-90
2023/08/12 12:50:35;;;;;;;3.65;1.77;;;32.70;96.60;;;;;;1920816;73;21435;-89
2023/08/12 12:53:26;;;;;;;4.00;2.17;;;32.90;96.70;;;;;;1931948;73;21107;-89
2023/08/12 12:56:18;;;;;;;2.95;1.80;;;33.00;96.80;;;;;;1946679;73;21083;-90
2023/08/12 13:02:55;;;;;;;3.22;1.92;;;33.50;95.30;;;;;;1959715;71;22138;-89
2023/08/12 13:05:47;;;;;;;5.60;2.47;;;33.70;94.70;;;;;;1949898;73;21506;-90
2023/08/12 13:11:19;;;;;;;3.70;1.95;;;33.70;94.30;;;;;;1943425;72;22168;-89
2023/08/12 13:14:11;;;;;;;4.08;2.02;;;33.50;94.20;;;;;;1922437;73;21174;-90
2023/08/12 13:17:03;;;;;;;2.77;1.92;;;33.40;93.90;;;;;;1930761;73;21094;-89
2023/08/12 13:19:55;;;;;;;4.12;2.05;;;33.30;93.70;;;;;;1921079;73;21094;-90
2023/08/12 13:22:47;;;;;;;2.90;2.02;;;33.30;93.50;;;;;;1931278;73;21534;-90
2023/08/12 13:25:38;;;;;;;3.22;2.17;;;33.20;93.10;;;;;;1936415;73;21568;-92
2023/08/12 13:28:30;;;;;;;4.42;2.12;;;33.30;93.00;;;;;;1920249;73;21232;-91
2023/08/12 13:31:21;;;;;;;5.00;1.90;;;33.50;92.90;;;;;;1916613;73;21107;-90
2023/08/12 13:36:59;;;;;;;3.35;2.00;;;33.90;91.90;;;;;;1975966;72;22114;-91
2023/08/12 13:39:51;;;;;;;3.90;1.80;;;33.90;91.80;;;;;;1919179;73;21532;-91
2023/08/12 13:45:27;;;;;;;4.60;1.87;;;33.90;91.20;;;;;;1941184;72;22199;-90
2023/08/12 13:48:19;;;;;;;4.35;2.08;;;34.00;91.20;;;;;;1885901;76;21079;-90
2023/08/12 13:51:11;;;;;;;3.77;1.95;;;33.80;91.10;;;;;;1892579;75;21107;-94
2023/08/12 13:54:02;;;;;;;2.15;1.80;;;33.60;90.40;;;;;;1897599;75;21144;-90
2023/08/12 13:56:53;;;;;;;5.33;2.50;;;33.50;90.80;;;;;;1917997;75;21140;-91
2023/08/12 13:59:45;;;;;;;3.50;1.98;;;33.40;90.60;;;;;;1842829;76;21112;-91
2023/08/12 14:02:37;;;;;;;3.25;1.80;;;33.30;90.70;;;;;;1893518;75;21184;-90
2023/08/12 14:05:29;;;;;;;4.20;2.02;;;33.30;90.20;;;;;;1912783;75;21732;-92
2023/08/12 14:08:21;;;;;;;5.78;2.17;;;33.40;89.50;;;;;;1884630;75;21571;-93
2023/08/12 14:11:13;;;;;;;5.22;1.87;;;33.50;88.10;;;;;;1917134;75;21084;-92
2023/08/12 14:14:04;;;;;;;2.87;1.90;;;33.50;87.60;;;;;;1898789;75;21094;-90
2023/08/12 14:16:56;;;;;;;5.95;2.47;;;33.50;86.70;;;;;;1913855;75;21122;-90
2023/08/12 14:22:36;;;;;;;3.45;1.80;;;33.80;85.80;;;;;;1944512;72;22120;-90
2023/08/12 14:25:27;;;;;;;2.77;1.90;;;34.30;85.90;;;;;;1917146;75;21197;-91
2023/08/12 14:28:19;;;;;;;2.30;1.60;;;34.30;84.70;;;;;;1917155;75;21210;-94
2023/08/12 14:31:11;;;;;;;2.50;1.60;;;34.20;85.00;;;;;;1917464;75;21079;-90
2023/08/12 14:34:03;;;;;;;3.95;2.08;;;34.00;84.90;;;;;;1917959;75;21050;-94
2023/08/12 14:36:54;;;;;;;3.80;1.80;;;33.90;85.10;;;;;;1917528;75;21120;-91
2023/08/12 14:39:47;;;;;;;2.22;1.60;;;33.70;85.90;;;;;;1880327;76;21849;-92
2023/08/12 14:58:26;;;;;;;3.20;1.90;;;33.90;84.50;;;;;;1951963;72;22145;-92
2023/08/12 15:01:17;;;;;;;2.95;1.90;;;34.00;82.80;;;;;;1939492;73;21040;-93
2023/08/12 15:04:09;;;;;;;3.77;2.00;;;34.00;81.90;;;;;;1942137;73;21088;-91
2023/08/12 15:07:00;;;;;;;5.90;1.90;;;34.00;81.70;;;;;;1917453;75;21132;-91
2023/08/12 15:12:42;;;;;;;2.75;2.20;;;34.10;82.00;;;;;;1947318;72;22166;-92
2023/08/12 15:18:53;;;;;;;3.70;1.82;;;34.10;82.20;;;;;;2033274;69;22035;-91
2023/08/12 15:21:44;;;;;;;3.12;1.90;;;34.00;81.90;;;;;;1966320;72;21070;-92
2023/08/12 15:24:35;;;;;;;3.67;2.00;;;34.00;81.30;;;;;;1985431;72;21602;-92
2023/08/12 15:27:26;;;;;;;3.83;1.90;;;33.90;80.90;;;;;;1984639;72;21067;-91
2023/08/12 15:30:17;;;;;;;2.80;1.85;;;33.90;81.50;;;;;;1942151;74;21092;-92
2023/08/12 15:38:43;;;;;;;3.47;2.00;;;34.10;81.70;;;;;;1943256;72;22162;-90
2023/08/12 15:41:35;;;;;;;2.92;2.00;;;33.70;82.20;;;;;;1894741;75;21171;-92
2023/08/12 15:47:11;;;;;;;4.37;2.20;;;33.40;83.30;;;;;;1957590;72;22217;-89
2023/08/12 15:50:03;;;;;;;3.75;1.85;;;33.30;82.80;;;;;;1910947;74;21129;-92
2023/08/12 15:52:54;;;;;;;2.05;1.82;;;33.30;83.10;;;;;;1905417;75;21098;-90
2023/08/12 15:55:45;;;;;;;4.92;1.87;;;33.20;83.50;;;;;;1902433;74;21094;-91
2023/08/12 15:58:37;;;;;;;3.87;2.15;;;33.30;83.10;;;;;;1916084;74;21131;-92
2023/08/12 16:01:30;;;;;;;3.22;1.90;;;33.80;83.10;;;;;;1904987;75;21209;-93
2023/08/12 16:07:15;;;;;;;3.98;2.30;;;38.10;78.30;;;;;;1972361;72;22162;-94
2023/08/12 16:10:09;;;;;;;5.12;2.00;;;38.80;75.40;;;;;;1917410;75;21151;-92
2023/08/12 16:15:42;;;;;;;5.90;3.22;;;36.50;78.20;;;;;;1931669;72;22456;-93
2023/08/12 16:18:33;;;;;;;4.05;2.50;;;35.80;80.50;;;;;;1906127;75;21119;-92
2023/08/12 16:21:24;;;;;;;4.53;1.92;;;35.50;80.10;;;;;;1904951;75;21158;-92
2023/08/12 16:24:15;;;;;;;4.78;2.08;;;35.40;79.10;;;;;;1883786;75;21142;-93
2023/08/12 16:27:07;;;;;;;3.75;1.85;;;35.20;79.80;;;;;;1905718;75;21167;-92
2023/08/12 16:32:39;;;;;;;2.35;1.90;;;36.10;76.60;;;;;;1946711;72;22268;-92
2023/08/12 16:35:31;;;;;;;6.47;2.00;;;37.10;73.70;;;;;;1924927;74;21082;-94
2023/08/12 16:38:22;;;;;;;3.25;2.20;;;37.10;74.40;;;;;;1905147;75;21105;-92
2023/08/12 16:43:58;;;;;;;4.05;1.98;;;40.10;71.70;;;;;;1952687;72;22186;-93
2023/08/12 16:46:49;;;;;;;3.17;1.80;;;41.20;68.40;;;;;;1931549;73;21110;-93
2023/08/12 16:49:41;;;;;;;3.87;2.30;;;41.30;67.10;;;;;;1917949;75;21082;-93
2023/08/12 16:52:32;;;;;;;2.55;2.35;;;41.50;66.50;;;;;;1917533;75;21091;-94
2023/08/12 16:58:10;;;;;;;4.08;2.17;;;41.70;62.70;;;;;;1964908;72;22229;-94
2023/08/12 17:01:01;;;;;;;4.22;1.72;;;41.90;62.30;;;;;;1903202;75;21523;-93
2023/08/12 17:03:53;;;;;;;4.03;2.30;;;42.40;61.80;;;;;;1900793;75;21056;-93
2023/08/12 17:06:44;;;;;;;3.20;1.92;;;42.60;61.30;;;;;;1869191;75;21176;-95
2023/08/12 17:12:18;;;;;;;3.50;1.90;;;42.60;60.80;;;;;;1952748;72;22273;-94
2023/08/12 17:18:25;;;;;;;3.17;1.80;;;42.10;60.60;;;;;;1996469;71;22113;-93
2023/08/12 17:21:17;;;;;;;4.83;2.15;;;41.10;61.30;;;;;;1953527;72;21587;-94
2023/08/12 17:27:25;;;;;;;4.22;2.37;;;39.90;62.80;;;;;;1982048;71;22219;-93
2023/08/12 17:30:16;;;;;;;4.25;2.05;;;39.30;64.10;;;;;;1974159;72;21244;-92
2023/08/12 17:33:08;;;;;;;2.87;2.10;;;38.60;63.80;;;;;;2066838;69;21577;-90
2023/08/12 17:35:59;;;;;;;2.83;2.02;;;38.70;65.00;;;;;;2041719;69;21068;-93
2023/08/12 17:38:51;;;;;;;4.92;2.12;;;38.80;65.10;;;;;;2036617;70;21148;-92
2023/08/12 17:57:57;;;;;;;4.35;2.92;;;35.50;69.30;;;;;;1976950;72;22126;-93
2023/08/12 18:18:40;;;;;;;6.37;3.77;;;33.10;76.40;;;;;;1984392;71;22281;-93
2023/08/12 18:21:31;;;;;;;5.70;4.00;;;32.60;78.10;;;;;;1954242;73;21126;-92
2023/08/12 18:43:10;;;;;;;6.50;3.42;;;30.90;86.30;;;;;;1949264;72;22665;-92
2023/08/12 18:46:02;;;;;;;6.50;4.72;;;30.90;86.10;;;;;;1917861;75;21117;-92
2023/08/12 18:48:53;;;;;;;15.83;8.28;;;30.80;88.20;;;;;;1917633;75;21597;-93
2023/08/12 18:51:44;;;;;;;10.38;4.60;;;30.60;89.50;;;;;;1917800;75;21094;-93
2023/08/12 18:54:36;;;;;;;5.92;3.35;;;30.50;90.20;;;;;;1925547;74;21472;-93
2023/08/12 18:57:29;;;;;;;5.17;2.67;;;30.20;90.00;;;;;;1921730;73;21112;-93
2023/08/12 19:00:22;;;;;;;2.80;2.45;;;30.00;91.00;;;;;;1942203;72;21114;-93
2023/08/12 19:05:59;;;;;;;6.40;2.95;;;29.70;91.90;;;;;;1942352;72;22136;-93
2023/08/12 19:08:51;;;;;;;4.42;3.17;;;29.60;92.10;;;;;;1920061;75;21107;-92
2023/08/12 19:11:42;;;;;;;7.08;4.83;;;29.50;92.40;;;;;;1918046;75;21198;-93
2023/08/12 19:14:34;;;;;;;9.43;5.75;;;29.40;92.80;;;;;;1917994;75;21109;-93
2023/08/12 19:17:25;;;;;;;4.55;2.80;;;29.30;92.90;;;;;;1923407;73;21632;-93
2023/08/12 19:20:17;;;;;;;5.33;3.83;;;29.20;93.00;;;;;;1938959;73;21088;-92
2023/08/12 19:23:09;;;;;;;5.72;3.83;;;29.20;93.60;;;;;;1910008;75;21063;-92
2023/08/12 19:26:01;;;;;;;4.35;2.00;;;29.10;93.80;;;;;;1920884;73;21083;-92
2023/08/12 19:28:53;;;;;;;3.90;2.25;;;29.10;93.70;;;;;;1918192;75;21133;-91
2023/08/12 19:31:45;;;;;;;5.00;2.52;;;29.10;93.90;;;;;;1943747;73;21161;-93
2023/08/12 19:34:36;;;;;;;5.50;2.80;;;29.00;94.20;;;;;;1918962;75;21165;-93
2023/08/12 19:37:27;;;;;;;7.17;3.83;;;28.90;94.70;;;;;;1918529;75;21102;-93
2023/08/12 19:40:19;;;;;;;4.78;2.80;;;28.60;95.90;;;;;;1927221;73;21075;-93
2023/08/12 19:47:44;;;;;;;3.77;2.50;;;28.40;96.60;;;;;;1990008;71;22124;-92
2023/08/12 19:50:36;;;;;;;5.20;3.00;;;28.30;96.70;;;;;;2030569;70;21074;-92
2023/08/12 19:53:30;;;;;;;4.05;2.15;;;28.30;97.30;;;;;;2010157;71;21079;-93
2023/08/12 19:56:28;;;;;;;4.37;2.60;;;28.20;97.30;;;;;;2036275;70;21175;-93
2023/08/12 19:59:19;;;;;;;6.20;2.47;;;28.20;97.40;;;;;;2032824;70;21073;-93
2023/08/12 20:02:15;;;;;;;5.58;3.50;;;28.10;97.60;;;;;;2032741;70;21085;-93
2023/08/12 20:05:14;;;;;;;4.37;2.52;;;28.10;97.80;;;;;;1998762;71;21172;-93
2023/08/12 20:08:13;;;;;;;4.33;2.80;;;28.00;98.20;;;;;;2022788;70;21061;-93
2023/08/12 20:11:04;;;;;;;5.87;3.40;;;28.00;98.40;;;;;;2032346;70;21741;-93
2023/08/12 20:13:56;;;;;;;5.33;3.30;;;28.00;99.00;;;;;;1995419;72;21073;-93
2023/08/12 20:16:51;;;;;;;6.17;3.80;;;27.90;99.60;;;;;;2030933;70;21122;-93
2023/08/12 20:19:45;;;;;;;5.60;4.33;;;27.70;99.90;;;;;;2021515;70;21181;-93
2023/08/12 20:22:39;;;;;;;6.00;4.45;;;27.70;99.90;;;;;;1968721;73;21025;-94
2023/08/12 20:25:36;;;;;;;6.70;4.58;;;27.60;99.90;;;;;;1989200;71;21187;-93
2023/08/12 20:28:30;;;;;;;8.30;4.75;;;27.60;99.90;;;;;;1998827;70;21029;-93
2023/08/12 20:31:28;;;;;;;6.62;4.65;;;27.50;99.90;;;;;;2032328;70;21142;-93
2023/08/12 20:52:33;;;;;;;4.70;3.02;;;27.00;99.90;;;;;;1982818;71;22205;-91
2023/08/12 20:55:28;;;;;;;5.12;2.83;;;26.90;99.90;;;;;;1942542;73;21156;-91
2023/08/12 20:58:20;;;;;;;5.47;2.90;;;26.80;99.90;;;;;;1995312;71;21143;-92
2023/08/12 21:01:14;;;;;;;3.65;2.62;;;26.80;99.90;;;;;;1995077;70;21094;-92
2023/08/12 21:04:09;;;;;;;3.87;3.10;;;26.70;99.90;;;;;;1993963;72;21085;-91
2023/08/12 21:07:02;;;;;;;6.70;3.90;;;26.80;99.90;;;;;;2009866;70;21156;-91
2023/08/12 21:12:44;;;;;;;6.35;3.30;;;26.80;99.90;;;;;;1930284;72;22190;-91
2023/08/12 21:18:16;;;;;;;8.25;4.35;;;26.30;99.90;;;;;;1944730;72;22170;-91
2023/08/12 21:40:17;;;;;;;4.72;3.25;;;26.50;99.90;;;;;;1990328;71;22976;-91
2023/08/12 21:43:09;;;;;;;6.78;3.95;;;26.30;99.90;;;;;;1952991;73;21082;-90
2023/08/12 21:46:00;;;;;;;5.70;3.58;;;26.10;99.90;;;;;;2063593;69;21046;-90
2023/08/12 21:48:52;;;;;;;4.67;4.12;;;26.10;99.90;;;;;;2034976;69;21108;-91
2023/08/12 21:51:44;;;;;;;5.03;3.27;;;26.00;99.90;;;;;;2031846;69;21150;-92
2023/08/12 21:57:17;;;;;;;5.17;3.08;;;26.00;99.90;;;;;;1927296;72;22245;-91
2023/08/12 22:00:13;;;;;;;8.40;3.20;;;25.90;99.90;;;;;;1884300;76;21138;-92
2023/08/12 22:03:05;;;;;;;4.12;3.67;;;25.90;99.90;;;;;;1904231;75;21047;-92
2023/08/12 22:05:56;;;;;;;5.90;3.42;;;25.90;99.90;;;;;;1914600;75;21224;-93
2023/08/12 22:08:47;;;;;;;6.50;3.50;;;25.90;99.90;;;;;;1890132;75;21098;-93
2023/08/12 22:11:39;;;;;;;5.03;3.62;;;25.80;99.90;;;;;;1877722;76;21062;-93
2023/08/12 22:18:14;;;;;;;6.00;3.30;;;25.70;99.90;;;;;;1994418;71;22107;-91
2023/08/12 22:21:05;;;;;;;7.80;5.37;;;25.60;99.90;;;;;;1953122;73;21098;-92
2023/08/12 22:23:56;;;;;;;4.12;3.33;;;25.60;99.90;;;;;;2032457;70;21139;-92
2023/08/12 22:26:48;;;;;;;4.58;3.20;;;25.60;99.90;;;;;;2031919;70;21413;-91
2023/08/12 22:29:40;;;;;;;5.35;3.20;;;25.70;99.90;;;;;;2031950;70;21113;-92
2023/08/12 22:32:33;;;;;;;4.80;3.08;;;25.70;99.90;;;;;;2031990;70;21131;-92